sensor_id;sensor_type;location;lat;lon;timestamp;temperature;humidity
46416;DHT22;32620;51.704;7.822;2023-07-09T00:01:10;21.70;99.90
46416;DHT22;32620;51.704;7.822;2023-07-09T00:03:37;21.60;99.90
46416;DHT22;32620;51.704;7.822;2023-07-09T00:06:03;21.60;99.90
46416;DHT22;32620;51.704;7.822;2023-07-09T00:08:30;21.50;99.90
46416;DHT22;32620;51.704;7.822;2023-07-09T00:10:57;21.40;99.90
46416;DHT22;32620;51.704;7.822;2023-07-09T00:13:24;21.30;99.90
46416;DHT22;32620;51.704;7.822;2023-07-09T00:15:50;21.20;99.90
46416;DHT22;32620;51.704;7.822;2023-07-09T00:18:16;21.10;99.90
46416;DHT22;32620;51.704;7.822;2023-07-09T00:20:42;21.00;99.90
46416;DHT22;32620;51.704;7.822;2023-07-09T00:23:10;21.00;99.90
46416;DHT22;32620;51.704;7.822;2023-07-09T00:25:39;20.90;99.90
46416;DHT22;32620;51.704;7.822;2023-07-09T00:28:16;20.80;96.00
46416;DHT22;32620;51.704;7.822;2023-07-09T00:30:44;20.70;96.30
46416;DHT22;32620;51.704;7.822;2023-07-09T00:33:12;20.70;94.80
46416;DHT22;32620;51.704;7.822;2023-07-09T00:35:41;20.60;91.60
46416;DHT22;32620;51.704;7.822;2023-07-09T00:38:13;20.60;90.00
46416;DHT22;32620;51.704;7.822;2023-07-09T00:40:47;20.60;90.30
46416;DHT22;32620;51.704;7.822;2023-07-09T00:43:15;20.60;1.00
46416;DHT22;32620;51.704;7.822;2023-07-09T00:45:41;20.60;99.90
46416;DHT22;32620;51.704;7.822;2023-07-09T00:48:13;20.60;1.00
46416;DHT22;32620;51.704;7.822;2023-07-09T00:50:44;20.60;99.90
46416;DHT22;32620;51.704;7.822;2023-07-09T00:53:19;20.50;99.90
46416;DHT22;32620;51.704;7.822;2023-07-09T00:55:50;20.50;1.00
46416;DHT22;32620;51.704;7.822;2023-07-09T00:58:20;20.40;1.00
46416;DHT22;32620;51.704;7.822;2023-07-09T01:00:50;20.40;1.00
46416;DHT22;32620;51.704;7.822;2023-07-09T01:03:39;20.30;76.10
46416;DHT22;32620;51.704;7.822;2023-07-09T01:06:07;20.30;1.00
46416;DHT22;32620;51.704;7.822;2023-07-09T01:08:35;20.20;99.90
46416;DHT22;32620;51.704;7.822;2023-07-09T01:11:01;20.10;99.90
46416;DHT22;32620;51.704;7.822;2023-07-09T01:13:28;20.00;1.00
46416;DHT22;32620;51.704;7.822;2023-07-09T01:15:54;19.90;99.90
46416;DHT22;32620;51.704;7.822;2023-07-09T01:18:21;19.80;99.90
46416;DHT22;32620;51.704;7.822;2023-07-09T01:20:48;19.80;99.90
46416;DHT22;32620;51.704;7.822;2023-07-09T01:23:13;19.70;1.00
46416;DHT22;32620;51.704;7.822;2023-07-09T01:25:45;19.70;99.90
46416;DHT22;32620;51.704;7.822;2023-07-09T01:28:12;19.60;99.90
46416;DHT22;32620;51.704;7.822;2023-07-09T01:30:40;19.60;99.90
46416;DHT22;32620;51.704;7.822;2023-07-09T01:33:06;19.60;99.90
46416;DHT22;32620;51.704;7.822;2023-07-09T01:35:35;19.60;99.90
46416;DHT22;32620;51.704;7.822;2023-07-09T01:38:02;19.60;99.90
46416;DHT22;32620;51.704;7.822;2023-07-09T01:40:28;19.60;99.90
46416;DHT22;32620;51.704;7.822;2023-07-09T01:42:55;19.60;99.90
46416;DHT22;32620;51.704;7.822;2023-07-09T01:45:24;19.50;99.90
46416;DHT22;32620;51.704;7.822;2023-07-09T01:47:49;19.50;99.90
46416;DHT22;32620;51.704;7.822;2023-07-09T01:50:15;19.50;99.90
46416;DHT22;32620;51.704;7.822;2023-07-09T01:52:42;19.50;1.00
46416;DHT22;32620;51.704;7.822;2023-07-09T01:55:10;19.40;1.00
46416;DHT22;32620;51.704;7.822;2023-07-09T01:57:36;19.40;99.90
46416;DHT22;32620;51.704;7.822;2023-07-09T02:00:05;19.40;1.00
46416;DHT22;32620;51.704;7.822;2023-07-09T02:02:31;19.30;1.00
46416;DHT22;32620;51.704;7.822;2023-07-09T02:04:58;19.30;99.90
46416;DHT22;32620;51.704;7.822;2023-07-09T02:07:24;19.30;99.90
46416;DHT22;32620;51.704;7.822;2023-07-09T02:09:51;19.30;99.90
46416;DHT22;32620;51.704;7.822;2023-07-09T02:12:17;19.30;99.90
46416;DHT22;32620;51.704;7.822;2023-07-09T02:14:44;19.30;1.00
46416;DHT22;32620;51.704;7.822;2023-07-09T02:17:12;19.20;1.00
46416;DHT22;32620;51.704;7.822;2023-07-09T02:19:38;19.20;1.00
46416;DHT22;32620;51.704;7.822;2023-07-09T02:22:04;19.10;1.00
46416;DHT22;32620;51.704;7.822;2023-07-09T02:24:30;19.10;1.00
46416;DHT22;32620;51.704;7.822;2023-07-09T02:26:57;19.00;1.00
46416;DHT22;32620;51.704;7.822;2023-07-09T02:29:24;18.90;1.00
46416;DHT22;32620;51.704;7.822;2023-07-09T02:31:51;18.90;1.00
46416;DHT22;32620;51.704;7.822;2023-07-09T02:34:18;18.90;1.00
46416;DHT22;32620;51.704;7.822;2023-07-09T02:36:44;18.90;1.00
46416;DHT22;32620;51.704;7.822;2023-07-09T02:39:12;18.90;1.00
46416;DHT22;32620;51.704;7.822;2023-07-09T02:41:39;19.00;1.00
46416;DHT22;32620;51.704;7.822;2023-07-09T02:44:05;19.00;1.00
46416;DHT22;32620;51.704;7.822;2023-07-09T02:46:32;19.10;1.00
46416;DHT22;32620;51.704;7.822;2023-07-09T02:48:57;19.10;99.90
46416;DHT22;32620;51.704;7.822;2023-07-09T02:51:24;19.00;99.90
46416;DHT22;32620;51.704;7.822;2023-07-09T02:53:53;19.00;99.90
46416;DHT22;32620;51.704;7.822;2023-07-09T02:56:19;19.00;99.90
46416;DHT22;32620;51.704;7.822;2023-07-09T02:58:45;19.00;99.90
46416;DHT22;32620;51.704;7.822;2023-07-09T03:01:10;18.90;99.90
46416;DHT22;32620;51.704;7.822;2023-07-09T03:03:38;18.90;1.00
46416;DHT22;32620;51.704;7.822;2023-07-09T03:06:05;18.90;1.00
46416;DHT22;32620;51.704;7.822;2023-07-09T03:08:30;18.90;1.00
46416;DHT22;32620;51.704;7.822;2023-07-09T03:10:56;18.90;99.90
46416;DHT22;32620;51.704;7.822;2023-07-09T03:13:22;18.90;1.00
46416;DHT22;32620;51.704;7.822;2023-07-09T03:15:56;18.90;99.90
46416;DHT22;32620;51.704;7.822;2023-07-09T03:18:23;19.00;99.90
46416;DHT22;32620;51.704;7.822;2023-07-09T03:20:48;19.00;99.90
46416;DHT22;32620;51.704;7.822;2023-07-09T03:23:14;19.00;99.90
46416;DHT22;32620;51.704;7.822;2023-07-09T03:25:41;19.10;99.90
46416;DHT22;32620;51.704;7.822;2023-07-09T03:28:07;19.10;99.90
46416;DHT22;32620;51.704;7.822;2023-07-09T03:30:33;19.10;99.90
46416;DHT22;32620;51.704;7.822;2023-07-09T03:32:58;19.10;99.90
46416;DHT22;32620;51.704;7.822;2023-07-09T03:35:25;19.00;99.90
46416;DHT22;32620;51.704;7.822;2023-07-09T03:37:51;19.10;99.90
46416;DHT22;32620;51.704;7.822;2023-07-09T03:40:23;19.10;99.90
46416;DHT22;32620;51.704;7.822;2023-07-09T03:42:49;19.20;99.90
46416;DHT22;32620;51.704;7.822;2023-07-09T03:45:15;19.20;99.90
46416;DHT22;32620;51.704;7.822;2023-07-09T03:47:41;19.10;99.90
46416;DHT22;32620;51.704;7.822;2023-07-09T03:50:08;19.10;99.90
46416;DHT22;32620;51.704;7.822;2023-07-09T03:52:35;19.20;99.90
46416;DHT22;32620;51.704;7.822;2023-07-09T03:55:01;19.20;99.90
46416;DHT22;32620;51.704;7.822;2023-07-09T03:57:30;19.20;99.90
46416;DHT22;32620;51.704;7.822;2023-07-09T03:59:55;19.30;99.90
46416;DHT22;32620;51.704;7.822;2023-07-09T04:02:21;19.40;99.90
46416;DHT22;32620;51.704;7.822;2023-07-09T04:04:46;19.40;99.90
46416;DHT22;32620;51.704;7.822;2023-07-09T04:07:12;19.40;99.90
46416;DHT22;32620;51.704;7.822;2023-07-09T04:09:38;19.40;99.90
46416;DHT22;32620;51.704;7.822;2023-07-09T04:12:04;19.50;99.90
46416;DHT22;32620;51.704;7.822;2023-07-09T04:14:29;19.60;99.90
46416;DHT22;32620;51.704;7.822;2023-07-09T04:16:55;19.70;99.90
46416;DHT22;32620;51.704;7.822;2023-07-09T04:19:20;19.80;99.90
46416;DHT22;32620;51.704;7.822;2023-07-09T04:21:46;19.90;18.10
46416;DHT22;32620;51.704;7.822;2023-07-09T04:24:16;20.00;1.00
46416;DHT22;32620;51.704;7.822;2023-07-09T04:26:42;20.10;1.00
46416;DHT22;32620;51.704;7.822;2023-07-09T04:29:07;20.10;24.70
46416;DHT22;32620;51.704;7.822;2023-07-09T04:31:33;20.10;1.00
46416;DHT22;32620;51.704;7.822;2023-07-09T04:33:59;20.20;1.00
46416;DHT22;32620;51.704;7.822;2023-07-09T04:36:24;20.40;1.00
46416;DHT22;32620;51.704;7.822;2023-07-09T04:38:51;20.50;99.90
46416;DHT22;32620;51.704;7.822;2023-07-09T04:41:17;20.70;99.90
46416;DHT22;32620;51.704;7.822;2023-07-09T04:43:42;21.10;99.90
46416;DHT22;32620;51.704;7.822;2023-07-09T04:46:08;21.90;1.00
46416;DHT22;32620;51.704;7.822;2023-07-09T04:48:34;22.60;99.90
46416;DHT22;32620;51.704;7.822;2023-07-09T04:50:59;23.20;99.90
46416;DHT22;32620;51.704;7.822;2023-07-09T04:53:25;23.70;99.90
46416;DHT22;32620;51.704;7.822;2023-07-09T04:55:51;24.20;35.80
46416;DHT22;32620;51.704;7.822;2023-07-09T04:58:17;24.40;22.30
46416;DHT22;32620;51.704;7.822;2023-07-09T05:00:44;24.60;99.90
46416;DHT22;32620;51.704;7.822;2023-07-09T05:03:09;25.20;8.20
46416;DHT22;32620;51.704;7.822;2023-07-09T05:05:35;25.50;59.00
46416;DHT22;32620;51.704;7.822;2023-07-09T05:08:00;25.70;12.10
46416;DHT22;32620;51.704;7.822;2023-07-09T05:10:26;26.10;56.10
46416;DHT22;32620;51.704;7.822;2023-07-09T05:12:54;26.40;72.50
46416;DHT22;32620;51.704;7.822;2023-07-09T05:15:22;26.40;98.90
46416;DHT22;32620;51.704;7.822;2023-07-09T05:17:47;26.40;99.70
46416;DHT22;32620;51.704;7.822;2023-07-09T05:20:14;26.20;99.90
46416;DHT22;32620;51.704;7.822;2023-07-09T05:22:40;26.10;99.90
46416;DHT22;32620;51.704;7.822;2023-07-09T05:25:06;26.00;99.90
46416;DHT22;32620;51.704;7.822;2023-07-09T05:27:32;26.60;99.90
46416;DHT22;32620;51.704;7.822;2023-07-09T05:29:57;27.00;99.90
46416;DHT22;32620;51.704;7.822;2023-07-09T05:32:23;27.60;99.90
46416;DHT22;32620;51.704;7.822;2023-07-09T05:34:49;27.70;99.90
46416;DHT22;32620;51.704;7.822;2023-07-09T05:37:15;28.00;99.90
46416;DHT22;32620;51.704;7.822;2023-07-09T05:39:40;27.90;99.90
46416;DHT22;32620;51.704;7.822;2023-07-09T05:42:06;28.70;99.40
46416;DHT22;32620;51.704;7.822;2023-07-09T05:44:32;28.70;99.60
46416;DHT22;32620;51.704;7.822;2023-07-09T05:46:58;29.20;98.40
46416;DHT22;32620;51.704;7.822;2023-07-09T05:49:23;29.40;98.00
46416;DHT22;32620;51.704;7.822;2023-07-09T05:51:49;29.20;97.90
46416;DHT22;32620;51.704;7.822;2023-07-09T05:54:14;29.50;98.10
46416;DHT22;32620;51.704;7.822;2023-07-09T05:56:40;29.70;97.30
46416;DHT22;32620;51.704;7.822;2023-07-09T05:59:05;29.90;97.40
46416;DHT22;32620;51.704;7.822;2023-07-09T06:01:31;30.40;96.20
46416;DHT22;32620;51.704;7.822;2023-07-09T06:03:57;30.70;95.60
46416;DHT22;32620;51.704;7.822;2023-07-09T06:06:23;30.20;96.00
46416;DHT22;32620;51.704;7.822;2023-07-09T06:08:49;30.30;96.40
46416;DHT22;32620;51.704;7.822;2023-07-09T06:11:15;30.20;95.70
46416;DHT22;32620;51.704;7.822;2023-07-09T06:13:42;29.80;96.40
46416;DHT22;32620;51.704;7.822;2023-07-09T06:16:08;30.10;96.10
46416;DHT22;32620;51.704;7.822;2023-07-09T06:18:34;30.10;96.40
46416;DHT22;32620;51.704;7.822;2023-07-09T06:21:01;30.10;96.20
46416;DHT22;32620;51.704;7.822;2023-07-09T06:23:28;30.50;96.00
46416;DHT22;32620;51.704;7.822;2023-07-09T06:25:53;30.20;96.20
46416;DHT22;32620;51.704;7.822;2023-07-09T06:28:22;30.10;96.70
46416;DHT22;32620;51.704;7.822;2023-07-09T06:30:48;30.90;95.40
46416;DHT22;32620;51.704;7.822;2023-07-09T06:33:15;31.70;94.40
46416;DHT22;32620;51.704;7.822;2023-07-09T06:35:58;32.40;93.20
46416;DHT22;32620;51.704;7.822;2023-07-09T06:38:25;32.30;92.80
46416;DHT22;32620;51.704;7.822;2023-07-09T06:40:50;32.40;92.60
46416;DHT22;32620;51.704;7.822;2023-07-09T06:43:17;32.40;92.50
46416;DHT22;32620;51.704;7.822;2023-07-09T06:45:59;31.90;92.50
46416;DHT22;32620;51.704;7.822;2023-07-09T06:48:26;31.70;92.50
46416;DHT22;32620;51.704;7.822;2023-07-09T06:50:53;32.10;92.80
46416;DHT22;32620;51.704;7.822;2023-07-09T06:53:20;32.90;91.80
46416;DHT22;32620;51.704;7.822;2023-07-09T06:55:46;33.10;91.30
46416;DHT22;32620;51.704;7.822;2023-07-09T06:58:12;32.90;91.60
46416;DHT22;32620;51.704;7.822;2023-07-09T07:00:38;33.10;91.20
46416;DHT22;32620;51.704;7.822;2023-07-09T07:03:05;32.60;91.20
46416;DHT22;32620;51.704;7.822;2023-07-09T07:05:30;31.90;92.70
46416;DHT22;32620;51.704;7.822;2023-07-09T07:07:57;32.20;92.30
46416;DHT22;32620;51.704;7.822;2023-07-09T07:10:22;32.60;92.30
46416;DHT22;32620;51.704;7.822;2023-07-09T07:12:48;33.00;92.30
46416;DHT22;32620;51.704;7.822;2023-07-09T07:15:16;33.10;92.20
46416;DHT22;32620;51.704;7.822;2023-07-09T07:17:42;32.70;92.50
46416;DHT22;32620;51.704;7.822;2023-07-09T07:20:10;33.00;91.80
46416;DHT22;32620;51.704;7.822;2023-07-09T07:22:37;32.70;93.00
46416;DHT22;32620;51.704;7.822;2023-07-09T07:25:04;32.90;92.00
46416;DHT22;32620;51.704;7.822;2023-07-09T07:27:30;33.90;91.40
46416;DHT22;32620;51.704;7.822;2023-07-09T07:29:56;34.30;90.70
46416;DHT22;32620;51.704;7.822;2023-07-09T07:32:21;34.30;90.50
46416;DHT22;32620;51.704;7.822;2023-07-09T07:34:47;33.70;90.80
46416;DHT22;32620;51.704;7.822;2023-07-09T07:37:14;34.30;91.30
46416;DHT22;32620;51.704;7.822;2023-07-09T07:39:39;34.80;90.50
46416;DHT22;32620;51.704;7.822;2023-07-09T07:42:06;35.00;89.40
46416;DHT22;32620;51.704;7.822;2023-07-09T07:44:32;34.40;90.30
46416;DHT22;32620;51.704;7.822;2023-07-09T07:46:57;35.00;90.10
46416;DHT22;32620;51.704;7.822;2023-07-09T07:49:23;35.50;87.10
46416;DHT22;32620;51.704;7.822;2023-07-09T07:51:48;36.40;85.60
46416;DHT22;32620;51.704;7.822;2023-07-09T07:54:14;35.70;85.40
46416;DHT22;32620;51.704;7.822;2023-07-09T07:56:40;34.80;86.90
46416;DHT22;32620;51.704;7.822;2023-07-09T07:59:06;34.80;87.60
46416;DHT22;32620;51.704;7.822;2023-07-09T08:01:32;34.90;85.20
46416;DHT22;32620;51.704;7.822;2023-07-09T08:04:01;34.90;85.80
46416;DHT22;32620;51.704;7.822;2023-07-09T08:06:27;35.40;84.20
46416;DHT22;32620;51.704;7.822;2023-07-09T08:08:52;35.50;84.10
46416;DHT22;32620;51.704;7.822;2023-07-09T08:11:18;35.30;83.80
46416;DHT22;32620;51.704;7.822;2023-07-09T08:13:43;35.40;85.00
46416;DHT22;32620;51.704;7.822;2023-07-09T08:16:09;36.50;83.00
46416;DHT22;32620;51.704;7.822;2023-07-09T08:18:37;35.70;83.10
46416;DHT22;32620;51.704;7.822;2023-07-09T08:21:03;35.30;84.50
46416;DHT22;32620;51.704;7.822;2023-07-09T08:23:29;35.40;83.50
46416;DHT22;32620;51.704;7.822;2023-07-09T08:25:55;35.60;83.90
46416;DHT22;32620;51.704;7.822;2023-07-09T08:28:21;36.10;81.70
46416;DHT22;32620;51.704;7.822;2023-07-09T08:30:47;36.60;82.40
46416;DHT22;32620;51.704;7.822;2023-07-09T08:33:12;36.00;81.80
46416;DHT22;32620;51.704;7.822;2023-07-09T08:35:38;36.00;81.10
46416;DHT22;32620;51.704;7.822;2023-07-09T08:38:07;36.20;81.20
46416;DHT22;32620;51.704;7.822;2023-07-09T08:40:32;37.20;79.90
46416;DHT22;32620;51.704;7.822;2023-07-09T08:43:06;37.50;78.20
46416;DHT22;32620;51.704;7.822;2023-07-09T08:45:46;36.60;79.50
46416;DHT22;32620;51.704;7.822;2023-07-09T08:48:23;36.30;81.70
46416;DHT22;32620;51.704;7.822;2023-07-09T08:50:55;36.10;81.10
46416;DHT22;32620;51.704;7.822;2023-07-09T08:53:32;35.90;80.30
46416;DHT22;32620;51.704;7.822;2023-07-09T08:55:59;36.60;81.50
46416;DHT22;32620;51.704;7.822;2023-07-09T08:58:28;37.20;80.10
46416;DHT22;32620;51.704;7.822;2023-07-09T09:00:56;37.90;77.00
46416;DHT22;32620;51.704;7.822;2023-07-09T09:06:16;38.10;77.20
46416;DHT22;32620;51.704;7.822;2023-07-09T09:11:46;37.70;77.50
46416;DHT22;32620;51.704;7.822;2023-07-09T09:14:27;37.70;74.00
46416;DHT22;32620;51.704;7.822;2023-07-09T09:16:56;37.50;74.50
46416;DHT22;32620;51.704;7.822;2023-07-09T09:22:10;37.30;76.60
46416;DHT22;32620;51.704;7.822;2023-07-09T09:27:25;37.20;75.10
46416;DHT22;32620;51.704;7.822;2023-07-09T09:29:50;37.00;76.30
46416;DHT22;32620;51.704;7.822;2023-07-09T09:32:22;37.00;76.70
46416;DHT22;32620;51.704;7.822;2023-07-09T09:34:50;38.10;78.80
46416;DHT22;32620;51.704;7.822;2023-07-09T09:37:29;38.90;74.60
46416;DHT22;32620;51.704;7.822;2023-07-09T09:39:55;39.10;75.00
46416;DHT22;32620;51.704;7.822;2023-07-09T09:42:24;38.50;72.20
46416;DHT22;32620;51.704;7.822;2023-07-09T09:44:53;38.70;71.90
46416;DHT22;32620;51.704;7.822;2023-07-09T09:47:19;39.30;70.80
46416;DHT22;32620;51.704;7.822;2023-07-09T09:49:45;39.30;69.70
46416;DHT22;32620;51.704;7.822;2023-07-09T09:52:13;38.60;69.60
46416;DHT22;32620;51.704;7.822;2023-07-09T09:54:41;38.20;71.40
46416;DHT22;32620;51.704;7.822;2023-07-09T09:57:17;38.40;71.50
46416;DHT22;32620;51.704;7.822;2023-07-09T09:59:45;38.40;72.90
46416;DHT22;32620;51.704;7.822;2023-07-09T10:02:17;38.70;71.40
46416;DHT22;32620;51.704;7.822;2023-07-09T10:04:44;39.10;70.50
46416;DHT22;32620;51.704;7.822;2023-07-09T10:07:31;38.90;67.90
46416;DHT22;32620;51.704;7.822;2023-07-09T10:09:58;38.20;70.40
46416;DHT22;32620;51.704;7.822;2023-07-09T10:15:45;38.60;70.60
46416;DHT22;32620;51.704;7.822;2023-07-09T10:18:10;38.70;68.40
46416;DHT22;32620;51.704;7.822;2023-07-09T10:21:07;39.60;67.20
46416;DHT22;32620;51.704;7.822;2023-07-09T10:23:42;39.00;65.10
46416;DHT22;32620;51.704;7.822;2023-07-09T10:26:30;38.10;70.30
46416;DHT22;32620;51.704;7.822;2023-07-09T10:32:06;38.80;66.10
46416;DHT22;32620;51.704;7.822;2023-07-09T10:34:50;39.10;69.70
46416;DHT22;32620;51.704;7.822;2023-07-09T10:40:17;39.60;64.10
46416;DHT22;32620;51.704;7.822;2023-07-09T10:42:48;39.30;66.10
46416;DHT22;32620;51.704;7.822;2023-07-09T10:45:33;39.00;67.30
46416;DHT22;32620;51.704;7.822;2023-07-09T10:48:05;39.10;64.80
46416;DHT22;32620;51.704;7.822;2023-07-09T10:50:39;38.30;70.20
46416;DHT22;32620;51.704;7.822;2023-07-09T10:53:14;38.40;65.90
46416;DHT22;32620;51.704;7.822;2023-07-09T10:56:04;38.10;69.10
46416;DHT22;32620;51.704;7.822;2023-07-09T10:58:36;37.80;68.80
46416;DHT22;32620;51.704;7.822;2023-07-09T11:01:04;38.00;69.80
46416;DHT22;32620;51.704;7.822;2023-07-09T11:03:50;38.20;70.60
46416;DHT22;32620;51.704;7.822;2023-07-09T11:06:37;37.80;67.50
46416;DHT22;32620;51.704;7.822;2023-07-09T11:09:13;37.90;69.60
46416;DHT22;32620;51.704;7.822;2023-07-09T11:11:45;37.20;68.50
46416;DHT22;32620;51.704;7.822;2023-07-09T11:14:33;36.90;67.60
46416;DHT22;32620;51.704;7.822;2023-07-09T11:17:01;37.20;69.40
46416;DHT22;32620;51.704;7.822;2023-07-09T11:19:27;36.70;70.70
46416;DHT22;32620;51.704;7.822;2023-07-09T11:22:01;36.70;69.10
46416;DHT22;32620;51.704;7.822;2023-07-09T11:24:44;36.80;69.90
46416;DHT22;32620;51.704;7.822;2023-07-09T11:27:28;36.40;69.30
46416;DHT22;32620;51.704;7.822;2023-07-09T11:29:59;36.00;70.00
46416;DHT22;32620;51.704;7.822;2023-07-09T11:32:26;36.30;72.30
46416;DHT22;32620;51.704;7.822;2023-07-09T11:34:53;36.10;71.80
46416;DHT22;32620;51.704;7.822;2023-07-09T11:37:20;36.10;68.80
46416;DHT22;32620;51.704;7.822;2023-07-09T11:39:48;35.90;72.20
46416;DHT22;32620;51.704;7.822;2023-07-09T11:42:32;36.50;75.30
46416;DHT22;32620;51.704;7.822;2023-07-09T11:45:06;36.10;68.90
46416;DHT22;32620;51.704;7.822;2023-07-09T11:47:37;36.20;69.10
46416;DHT22;32620;51.704;7.822;2023-07-09T11:50:43;35.90;69.60
46416;DHT22;32620;51.704;7.822;2023-07-09T11:53:01;36.00;68.20
46416;DHT22;32620;51.704;7.822;2023-07-09T11:55:45;36.30;68.20
46416;DHT22;32620;51.704;7.822;2023-07-09T11:58:14;36.00;69.10
46416;DHT22;32620;51.704;7.822;2023-07-09T12:00:42;36.10;68.10
46416;DHT22;32620;51.704;7.822;2023-07-09T12:03:15;36.30;68.90
46416;DHT22;32620;51.704;7.822;2023-07-09T12:05:48;36.30;67.40
46416;DHT22;32620;51.704;7.822;2023-07-09T12:08:15;36.40;68.00
46416;DHT22;32620;51.704;7.822;2023-07-09T12:10:41;35.90;68.60
46416;DHT22;32620;51.704;7.822;2023-07-09T12:13:10;36.20;70.40
46416;DHT22;32620;51.704;7.822;2023-07-09T12:15:39;36.10;70.60
46416;DHT22;32620;51.704;7.822;2023-07-09T12:18:12;36.30;69.70
46416;DHT22;32620;51.704;7.822;2023-07-09T12:20:38;36.50;70.30
46416;DHT22;32620;51.704;7.822;2023-07-09T12:23:27;36.40;68.80
46416;DHT22;32620;51.704;7.822;2023-07-09T12:25:54;36.00;70.70
46416;DHT22;32620;51.704;7.822;2023-07-09T12:28:22;36.30;72.10
46416;DHT22;32620;51.704;7.822;2023-07-09T12:30:50;36.50;72.30
46416;DHT22;32620;51.704;7.822;2023-07-09T12:33:17;36.40;69.60
46416;DHT22;32620;51.704;7.822;2023-07-09T12:35:43;36.30;69.90
46416;DHT22;32620;51.704;7.822;2023-07-09T12:38:18;36.60;68.90
46416;DHT22;32620;51.704;7.822;2023-07-09T12:40:45;36.30;71.30
46416;DHT22;32620;51.704;7.822;2023-07-09T12:43:12;36.50;71.00
46416;DHT22;32620;51.704;7.822;2023-07-09T12:45:38;36.00;68.60
46416;DHT22;32620;51.704;7.822;2023-07-09T12:48:04;36.10;70.00
46416;DHT22;32620;51.704;7.822;2023-07-09T12:50:32;36.20;71.30
46416;DHT22;32620;51.704;7.822;2023-07-09T12:53:03;36.20;69.80
46416;DHT22;32620;51.704;7.822;2023-07-09T12:55:30;36.30;69.50
46416;DHT22;32620;51.704;7.822;2023-07-09T12:58:02;35.90;69.50
46416;DHT22;32620;51.704;7.822;2023-07-09T13:00:30;36.10;71.00
46416;DHT22;32620;51.704;7.822;2023-07-09T13:02:58;36.20;71.40
46416;DHT22;32620;51.704;7.822;2023-07-09T13:05:25;36.10;70.00
46416;DHT22;32620;51.704;7.822;2023-07-09T13:07:54;36.20;70.80
46416;DHT22;32620;51.704;7.822;2023-07-09T13:10:30;36.20;68.70
46416;DHT22;32620;51.704;7.822;2023-07-09T13:13:02;36.30;72.30
46416;DHT22;32620;51.704;7.822;2023-07-09T13:15:40;36.10;70.10
46416;DHT22;32620;51.704;7.822;2023-07-09T13:18:11;36.10;74.30
46416;DHT22;32620;51.704;7.822;2023-07-09T13:20:41;36.30;72.60
46416;DHT22;32620;51.704;7.822;2023-07-09T13:23:18;36.40;71.70
46416;DHT22;32620;51.704;7.822;2023-07-09T13:25:44;36.30;73.80
46416;DHT22;32620;51.704;7.822;2023-07-09T13:28:19;36.50;73.50
46416;DHT22;32620;51.704;7.822;2023-07-09T13:30:46;36.60;69.60
46416;DHT22;32620;51.704;7.822;2023-07-09T13:33:12;36.50;68.80
46416;DHT22;32620;51.704;7.822;2023-07-09T13:35:38;36.50;71.30
46416;DHT22;32620;51.704;7.822;2023-07-09T13:38:12;36.50;68.60
46416;DHT22;32620;51.704;7.822;2023-07-09T13:40:37;36.50;72.00
46416;DHT22;32620;51.704;7.822;2023-07-09T13:43:10;36.60;69.40
46416;DHT22;32620;51.704;7.822;2023-07-09T13:45:35;36.50;68.50
46416;DHT22;32620;51.704;7.822;2023-07-09T13:48:01;36.30;68.90
46416;DHT22;32620;51.704;7.822;2023-07-09T13:50:26;36.00;69.60
46416;DHT22;32620;51.704;7.822;2023-07-09T13:52:52;35.90;74.90
46416;DHT22;32620;51.704;7.822;2023-07-09T13:55:20;36.10;71.40
46416;DHT22;32620;51.704;7.822;2023-07-09T13:57:47;36.10;72.60
46416;DHT22;32620;51.704;7.822;2023-07-09T14:00:13;36.20;72.40
46416;DHT22;32620;51.704;7.822;2023-07-09T14:02:39;36.20;74.00
46416;DHT22;32620;51.704;7.822;2023-07-09T14:05:07;36.20;75.50
46416;DHT22;32620;51.704;7.822;2023-07-09T14:07:36;36.00;72.00
46416;DHT22;32620;51.704;7.822;2023-07-09T14:10:04;35.90;73.60
46416;DHT22;32620;51.704;7.822;2023-07-09T14:12:30;35.70;75.40
46416;DHT22;32620;51.704;7.822;2023-07-09T14:14:58;35.50;76.20
46416;DHT22;32620;51.704;7.822;2023-07-09T14:17:25;35.50;75.10
46416;DHT22;32620;51.704;7.822;2023-07-09T14:19:52;35.30;76.00
46416;DHT22;32620;51.704;7.822;2023-07-09T14:24:57;35.20;72.60
46416;DHT22;32620;51.704;7.822;2023-07-09T14:27:22;34.80;77.30
46416;DHT22;32620;51.704;7.822;2023-07-09T14:29:48;34.70;75.90
46416;DHT22;32620;51.704;7.822;2023-07-09T14:32:32;34.60;77.50
46416;DHT22;32620;51.704;7.822;2023-07-09T14:34:58;34.60;78.00
46416;DHT22;32620;51.704;7.822;2023-07-09T14:37:24;34.90;74.40
46416;DHT22;32620;51.704;7.822;2023-07-09T14:39:50;34.70;78.00
46416;DHT22;32620;51.704;7.822;2023-07-09T14:42:15;34.70;78.00
46416;DHT22;32620;51.704;7.822;2023-07-09T14:44:42;34.60;76.20
46416;DHT22;32620;51.704;7.822;2023-07-09T14:47:14;34.40;77.40
46416;DHT22;32620;51.704;7.822;2023-07-09T14:49:40;34.40;76.50
46416;DHT22;32620;51.704;7.822;2023-07-09T14:52:12;34.30;80.90
46416;DHT22;32620;51.704;7.822;2023-07-09T14:54:39;34.20;78.00
46416;DHT22;32620;51.704;7.822;2023-07-09T14:57:13;34.10;78.80
46416;DHT22;32620;51.704;7.822;2023-07-09T14:59:42;33.90;79.40
46416;DHT22;32620;51.704;7.822;2023-07-09T15:02:32;33.70;80.40
46416;DHT22;32620;51.704;7.822;2023-07-09T15:04:59;33.40;80.10
46416;DHT22;32620;51.704;7.822;2023-07-09T15:07:25;33.10;80.90
46416;DHT22;32620;51.704;7.822;2023-07-09T15:09:56;32.90;82.30
46416;DHT22;32620;51.704;7.822;2023-07-09T15:12:27;32.80;81.90
46416;DHT22;32620;51.704;7.822;2023-07-09T15:15:03;32.50;83.60
46416;DHT22;32620;51.704;7.822;2023-07-09T15:17:31;32.40;83.60
46416;DHT22;32620;51.704;7.822;2023-07-09T15:19:56;32.30;85.10
46416;DHT22;32620;51.704;7.822;2023-07-09T15:22:32;32.20;84.80
46416;DHT22;32620;51.704;7.822;2023-07-09T15:24:58;32.20;85.30
46416;DHT22;32620;51.704;7.822;2023-07-09T15:27:24;32.00;85.80
46416;DHT22;32620;51.704;7.822;2023-07-09T15:29:50;32.00;85.80
46416;DHT22;32620;51.704;7.822;2023-07-09T15:32:16;31.90;86.40
46416;DHT22;32620;51.704;7.822;2023-07-09T15:34:41;31.90;86.90
46416;DHT22;32620;51.704;7.822;2023-07-09T15:37:16;31.80;87.10
46416;DHT22;32620;51.704;7.822;2023-07-09T15:39:42;31.70;87.90
46416;DHT22;32620;51.704;7.822;2023-07-09T15:42:12;31.60;88.20
46416;DHT22;32620;51.704;7.822;2023-07-09T15:44:38;31.50;88.20
46416;DHT22;32620;51.704;7.822;2023-07-09T15:47:03;31.50;88.60
46416;DHT22;32620;51.704;7.822;2023-07-09T15:49:30;31.20;99.90
46416;DHT22;32620;51.704;7.822;2023-07-09T15:54:23;29.20;91.50
46416;DHT22;32620;51.704;7.822;2023-07-09T15:56:51;27.00;97.20
46416;DHT22;32620;51.704;7.822;2023-07-09T16:01:51;26.00;99.90
46416;DHT22;32620;51.704;7.822;2023-07-09T16:04:17;25.60;99.90
46416;DHT22;32620;51.704;7.822;2023-07-09T16:06:43;25.30;99.90
46416;DHT22;32620;51.704;7.822;2023-07-09T16:09:08;24.90;99.90